Sultana — WDA4793 — position and weather

sailwx.info

Track history (hours):
 
Tides and Currents Weather Stations Pressure Air Temp Water Temp Dewpoint Dewpoint Depression Visibility Wind Speed Wind Dir Waves Ship Positions

Sultana

Owner: Sultana Projects, Inc., CHESTERTOWN, MD. More information available from US FCC via Universal Licensing System and Coast Guard Vessel Documentation Center.

Last reported at 2019-Oct-26 17:38 UTC. Time now 2019-Dec-08 11:27 UTC.
Position N 39°03' W 076°19'.
Warning: this ship's position is 42 days out of date.

Length 18 m.

Type: Sailing vessel. MMSI: 366813170.

Date/timePositionNaut miles runAvg speedWind from/ knotsBaromVisibWave heightAir tempDewpointWater temp
2019-Oct-26 17:38N 39°03' W 076°19'1 7.0
2019-Oct-26 17:30N 39°03' W 076°20'3 6.8
2019-Oct-26 17:00N 39°00' W 076°23'3 6.0
2019-Oct-26 16:31N 38°57' W 076°24'3 5.5
2019-Oct-26 16:00N 38°55' W 076°25'  
2019-Oct-18 12:43N 38°50' W 076°24'2 7.0
2019-Oct-18 12:29N 38°52' W 076°24'3 6.9
2019-Oct-18 12:00N 38°55' W 076°23'3 6.7
2019-Oct-18 11:30N 38°58' W 076°23'1 2.1
2019-Oct-18 11:00N 38°59' W 076°23'0 0.2
2019-Oct-18 10:30N 38°59' W 076°23'2 4.7
2019-Oct-18 09:59N 39°02' W 076°23'13 5.4
2019-Oct-18 07:41N 39°12' W 076°31'1 6.5
2019-Oct-18 07:30N 39°13' W 076°32'3 6.1
2019-Oct-18 07:00N 39°16' W 076°34'1 0.2
2019-Oct-17 23:57N 39°17' W 076°35'0 0.0
2019-Oct-17 20:24N 39°17' W 076°35'0 0.0
2019-Oct-17 17:33N 39°17' W 076°35'0 0.0
2019-Oct-17 15:57N 39°17' W 076°35'  
Track history (hours):
 
Tides and Currents Weather Stations Pressure Air Temp Water Temp Dewpoint Dewpoint Depression Visibility Wind Speed Wind Dir Waves Ship Positions

Sultana

Owner: Sultana Projects, Inc., CHESTERTOWN, MD. More information available from US FCC via Universal Licensing System and Coast Guard Vessel Documentation Center.

Last reported at 2019-Oct-26 17:38 UTC. Time now 2019-Dec-08 11:27 UTC.
Position N 39°03' W 076°19'.
Warning: this ship's position is 42 days out of date.

Length 18 m.

Type: Sailing vessel. MMSI: 366813170.

Date/timePositionNaut miles runAvg speedWind from/ knotsBaromVisibWave heightAir tempDewpointWater temp
2019-Oct-26 17:38N 39°03' W 076°19'1 7.0
2019-Oct-26 17:30N 39°03' W 076°20'3 6.8
2019-Oct-26 17:00N 39°00' W 076°23'3 6.0
2019-Oct-26 16:31N 38°57' W 076°24'3 5.5
2019-Oct-26 16:00N 38°55' W 076°25'  
2019-Oct-18 12:43N 38°50' W 076°24'2 7.0
2019-Oct-18 12:29N 38°52' W 076°24'3 6.9
2019-Oct-18 12:00N 38°55' W 076°23'3 6.7
2019-Oct-18 11:30N 38°58' W 076°23'1 2.1
2019-Oct-18 11:00N 38°59' W 076°23'0 0.2
2019-Oct-18 10:30N 38°59' W 076°23'2 4.7
2019-Oct-18 09:59N 39°02' W 076°23'13 5.4
2019-Oct-18 07:41N 39°12' W 076°31'1 6.5
2019-Oct-18 07:30N 39°13' W 076°32'3 6.1
2019-Oct-18 07:00N 39°16' W 076°34'1 0.2
2019-Oct-17 23:57N 39°17' W 076°35'0 0.0
2019-Oct-17 20:24N 39°17' W 076°35'0 0.0
2019-Oct-17 17:33N 39°17' W 076°35'0 0.0
2019-Oct-17 15:57N 39°17' W 076°35'  

Dump ship's entire track history